メインページ
METAR-TAF:

METAR-TAF

空港 :

ケロウナ国際空港

ケロウナ, ブリティッシュコロンビア州, カナダ

緯度: 49-58N, 経度: 119-23W, 海抜: 430m

現時点の気象観測

当レポートは27分前の17:41(UTC)に作成
東/南東の風 4kt、から南東の間で変化する
気温 8°C
湿度 87%
気圧 1015 hPa
視程: 14.5km
高度2000ftの千切れ雲あり
高度3700ftの千切れ雲あり
高度9500ftの千切れ雲あり

METAR: CYLW 171741Z AUTO 11004KT 080V140 9SM BKN020 BKN037 BKN095 08/06 A2996 RMK SLP159

時間: 10:08 (18:08 UTC)

予報

当レポートは5時間30分前の12:38(UTC)に作成
予報は17日の 13時(UTC)から 18日の 01時(UTC)まで有効
変向風 3kt
視程: 10km
高度3000ftの雲は散在している
高度6000ftの千切れ雲あり
17日の 13時(UTC)から 17日の 17時(UTC)まで一時的に
視程: 10km
高度2000ftの千切れ雲あり
高度6000ftの曇り
弱いにわか雨
17日の 1700時(UTC)から
の風 5kt
視程: 10km
高度4000ftの千切れ雲あり
17日の 17時(UTC)から 17日の 22時(UTC)まで一時的に
高度4000ftの雲は散在している
17日の 2200時(UTC)から
の風 8kt
視程: 10km
高度6000ftの雲は散在している

TAF: CYLW 171238Z 1713/1801 VRB03KT P6SM SCT030 BKN060 TEMPO 1713/1717 P6SM -SHRA BKN020 OVC060 FM171700 18005KT P6SM BKN040 TEMPO 1717/1722 SCT040 FM172200 18008KT P6SM SCT060 RMK FCST BASED ON AUTO OBS. NXT FCST BY 171900Z

4,000以上の空港の気象観測と天気予報(METAR報とTAF報)

利用可能な観測所は地図上に黄色い丸と赤い丸で示す。

丸の上にカーソルを重ねると観測所名を参照できる。

次にクリックすると気象観測と天気予報を参照できる。

マップの切り替え:黒色「×」印の緑ボタンをクリックして拡大、「-」印の緑ボタンをクリックして縮小、緑色の三角印をクリックして隣りの地図に切り替え


METAR-TAF: